Time;durP1;ratioP1;P1;durP2;ratioP2;P2;SDS_P1;SDS_P2;PMS_P1;PMS_P2;Temp;Humidity;BMP_temperature;BMP_pressure;BME280_temperature;BME280_humidity;BME280_pressure;Samples;Min_cycle;Max_cycle;Signal;HPM_P1;HPM_P2
2022/01/01 00:02:07;;;;;;;25.45;14.52;;;;;;;9.76;100.00;99867.44;5004159;28;20033;-66
2022/01/01 00:04:32;;;;;;;29.92;14.55;;;;;;;9.80;100.00;99869.22;5012437;28;20252;-66
2022/01/01 00:06:58;;;;;;;28.50;15.05;;;;;;;9.76;100.00;99872.72;5023521;28;20037;-66
2022/01/01 00:09:23;;;;;;;29.35;14.18;;;;;;;9.74;100.00;99864.81;5023769;28;20026;-66
2022/01/01 00:11:49;;;;;;;27.33;14.93;;;;;;;9.74;100.00;99861.28;5023761;28;20025;-66
2022/01/01 00:14:14;;;;;;;30.77;14.82;;;;;;;9.73;100.00;99864.81;5023398;28;20092;-66
2022/01/01 00:16:39;;;;;;;28.15;12.70;;;;;;;9.75;100.00;99855.19;5024138;28;20022;-66
2022/01/01 00:19:05;;;;;;;27.45;12.27;;;;;;;9.78;100.00;99857.84;5023728;28;20033;-66
2022/01/01 00:21:30;;;;;;;20.65;11.38;;;;;;;9.78;100.00;99857.84;5023681;28;20097;-66
2022/01/01 00:23:57;;;;;;;21.63;11.18;;;;;;;9.78;100.00;99856.06;5027182;28;20026;-66
2022/01/01 00:26:23;;;;;;;23.13;12.55;;;;;;;9.71;100.00;99848.16;5027097;28;20041;-66
2022/01/01 00:28:48;;;;;;;22.52;11.80;;;;;;;9.68;100.00;99850.78;5027178;28;20028;-66
2022/01/01 00:31:14;;;;;;;22.20;11.55;;;;;;;9.70;100.00;99856.91;5027403;28;20018;-66
2022/01/01 00:33:39;;;;;;;22.67;11.45;;;;;;;9.72;100.00;99855.19;5026263;28;20040;-66
2022/01/01 00:36:05;;;;;;;19.80;10.30;;;;;;;9.70;100.00;99862.16;5026981;28;20018;-66
2022/01/01 00:38:30;;;;;;;23.40;12.25;;;;;;;9.69;100.00;99860.41;5027037;28;20337;-66
2022/01/01 00:40:56;;;;;;;19.98;9.57;;;;;;;9.70;100.00;99857.81;5026953;28;20068;-66
2022/01/01 00:43:21;;;;;;;19.05;10.52;;;;;;;9.72;100.00;99871.84;5026926;28;20026;-66
2022/01/01 00:45:47;;;;;;;20.35;10.95;;;;;;;9.75;100.00;99865.72;5025276;28;20025;-66
2022/01/01 00:48:12;;;;;;;20.10;11.18;;;;;;;9.70;100.00;99862.16;5007427;28;20041;-66
2022/01/01 00:50:38;;;;;;;21.63;10.98;;;;;;;9.72;100.00;99857.81;5007400;28;20351;-66
2022/01/01 00:53:03;;;;;;;21.52;10.80;;;;;;;9.69;100.00;99849.91;5011976;28;20236;-66
2022/01/01 00:55:29;;;;;;;21.08;10.38;;;;;;;9.70;100.00;99854.28;5026602;28;20021;-66
2022/01/01 00:57:54;;;;;;;20.92;9.93;;;;;;;9.72;100.00;99847.28;5026658;28;20022;-66
2022/01/01 01:00:20;;;;;;;22.92;12.02;;;;;;;9.65;100.00;99850.78;5026600;28;20084;-66
2022/01/01 01:02:45;;;;;;;24.55;11.57;;;;;;;9.64;100.00;99847.25;5026451;28;20034;-66
2022/01/01 01:05:10;;;;;;;20.95;11.48;;;;;;;9.61;100.00;99843.72;5026523;28;20344;-66
2022/01/01 01:07:36;;;;;;;21.00;11.25;;;;;;;9.61;100.00;99841.09;5026506;28;20029;-66
2022/01/01 01:10:03;;;;;;;21.10;11.00;;;;;;;9.58;100.00;99854.22;5026503;28;20033;-66
2022/01/01 01:12:38;;;;;;;19.42;10.35;;;;;;;9.55;100.00;99847.22;5026441;28;20059;-66
2022/01/01 01:15:04;;;;;;;21.40;10.98;;;;;;;9.56;100.00;99848.09;5021087;28;20209;-66
2022/01/01 01:17:30;;;;;;;18.75;10.50;;;;;;;9.60;100.00;99844.59;5006659;28;20056;-66
2022/01/01 01:19:55;;;;;;;24.73;10.82;;;;;;;9.60;100.00;99850.75;5006570;28;20028;-66
2022/01/01 01:22:21;;;;;;;18.10;10.43;;;;;;;9.62;100.00;99850.75;5006560;28;20085;-66
2022/01/01 01:24:46;;;;;;;21.15;10.77;;;;;;;9.70;100.00;99856.91;5006348;28;20046;-66
2022/01/01 01:27:12;;;;;;;25.15;11.70;;;;;;;9.66;100.00;99861.31;5006497;28;20034;-66
2022/01/01 01:29:41;;;;;;;20.17;11.63;;;;;;;9.62;100.00;99858.66;5006455;28;20333;-66
2022/01/01 01:32:07;;;;;;;20.58;11.23;;;;;;;9.68;100.00;99863.94;5006419;28;20076;-66
2022/01/01 01:34:33;;;;;;;17.15;9.63;;;;;;;9.66;100.00;99855.16;5006147;28;20034;-66
2022/01/01 01:36:58;;;;;;;19.48;10.75;;;;;;;9.68;100.00;99858.69;5006224;28;20030;-66
2022/01/01 01:39:24;;;;;;;22.75;11.57;;;;;;;9.65;100.00;99845.53;5012641;28;20041;-66
2022/01/01 01:41:51;;;;;;;20.88;11.57;;;;;;;9.70;100.00;99854.28;5026053;28;20026;-66
2022/01/01 01:44:36;;;;;;;20.70;11.73;;;;;;;9.62;100.00;99850.75;5010720;28;20026;-66
2022/01/01 01:47:04;;;;;;;19.48;10.82;;;;;;;9.64;100.00;99846.38;5006382;28;20022;-66
2022/01/01 01:49:30;;;;;;;23.27;11.57;;;;;;;9.68;100.00;99850.78;5006043;28;20030;-66
2022/01/01 01:51:56;;;;;;;24.20;12.63;;;;;;;9.63;100.00;99839.38;5005996;28;20329;-66
2022/01/01 01:54:22;;;;;;;23.48;11.65;;;;;;;9.71;100.00;99843.78;5005970;28;20377;-65
2022/01/01 01:56:48;;;;;;;22.02;11.73;;;;;;;9.67;100.00;99835.88;5005833;28;20033;-65
2022/01/01 01:59:14;;;;;;;27.05;12.48;;;;;;;9.68;100.00;99837.66;5005863;28;20030;-65
2022/01/01 02:01:40;;;;;;;22.77;11.88;;;;;;;9.69;100.00;99839.38;5005808;28;20042;-65
2022/01/01 02:04:06;;;;;;;23.05;12.27;;;;;;;9.59;100.00;99833.22;5005807;28;20321;-66
2022/01/01 02:06:32;;;;;;;25.40;12.80;;;;;;;9.63;100.00;99836.75;5021731;28;20037;-66
2022/01/01 02:08:58;;;;;;;30.98;12.48;;;;;;;9.63;100.00;99828.84;5025304;28;20088;-66
2022/01/01 02:11:24;;;;;;;26.10;13.25;;;;;;;9.61;100.00;99835.84;5025291;28;20371;-66
2022/01/01 02:18:54;;;;;;;20.40;11.60;;;;;;;9.71;100.00;99848.16;5025415;28;20029;-66
2022/01/01 02:21:21;;;;;;;22.77;11.65;;;;;;;9.68;100.00;99842.91;5025156;28;20093;-66
2022/01/01 02:23:49;;;;;;;21.77;11.20;;;;;;;9.75;100.00;99844.66;5024995;28;20029;-66
2022/01/01 02:26:16;;;;;;;23.58;11.93;;;;;;;9.63;100.00;99849.88;5024837;28;20065;-66
2022/01/01 02:28:46;;;;;;;19.08;10.32;;;;;;;9.71;100.00;99845.53;5024885;28;20028;-66
2022/01/01 02:31:12;;;;;;;21.27;11.50;;;;;;;9.67;100.00;99849.00;5024899;28;20084;-66
2022/01/01 02:33:38;;;;;;;24.60;11.07;;;;;;;9.67;100.00;99851.63;5024289;28;20336;-66
2022/01/01 02:36:05;;;;;;;24.10;11.80;;;;;;;9.67;100.00;99846.38;5024831;28;20022;-66
2022/01/01 02:38:35;;;;;;;21.73;10.35;;;;;;;9.68;100.00;99848.16;5024939;28;20097;-66
2022/01/01 02:41:01;;;;;;;19.27;9.95;;;;;;;9.68;100.00;99837.66;5022030;28;20036;-66
2022/01/01 02:43:27;;;;;;;20.73;10.55;;;;;;;9.69;100.00;99834.13;5005060;28;20026;-66
2022/01/01 02:45:53;;;;;;;20.67;11.10;;;;;;;9.71;100.00;99840.28;5004296;28;20022;-66
2022/01/01 02:48:20;;;;;;;19.75;10.82;;;;;;;9.73;100.00;99841.16;5005228;28;20214;-66
2022/01/01 02:50:45;;;;;;;21.27;9.98;;;;;;;9.71;100.00;99833.25;5005211;28;20195;-66
2022/01/01 02:53:12;;;;;;;19.73;10.38;;;;;;;9.67;100.00;99835.88;5004939;28;20026;-66
2022/01/01 02:55:38;;;;;;;19.90;11.27;;;;;;;9.69;100.00;99823.63;5004892;28;20059;-66
2022/01/01 02:58:04;;;;;;;20.45;9.90;;;;;;;9.69;100.00;99828.88;5004877;28;20092;-66
2022/01/01 03:00:29;;;;;;;21.65;10.82;;;;;;;9.68;100.00;99821.88;5004845;28;20026;-66
2022/01/01 03:02:55;;;;;;;22.88;10.30;;;;;;;9.69;100.00;99828.88;5012775;28;20032;-66
2022/01/01 03:05:20;;;;;;;16.40;9.05;;;;;;;9.70;100.00;99831.50;5024413;28;20249;-66
2022/01/01 03:07:46;;;;;;;26.42;10.48;;;;;;;9.68;100.00;99828.00;5024339;28;20029;-66
2022/01/01 03:10:11;;;;;;;21.73;10.98;;;;;;;9.72;100.00;99823.63;5024341;28;20092;-66
2022/01/01 03:12:36;;;;;;;22.50;10.27;;;;;;;9.69;100.00;99823.63;5024357;28;20249;-66
2022/01/01 03:15:02;;;;;;;19.73;10.95;;;;;;;9.68;100.00;99806.09;5012526;28;20033;-66
2022/01/01 03:17:28;;;;;;;21.08;10.48;;;;;;;9.69;100.00;99813.09;5004551;28;20241;-66
2022/01/01 03:19:53;;;;;;;19.85;9.60;;;;;;;9.72;100.00;99807.84;5004571;28;20265;-66
2022/01/01 03:22:19;;;;;;;16.10;8.57;;;;;;;9.72;100.00;99808.75;5004517;28;20033;-66
2022/01/01 03:24:44;;;;;;;17.65;8.98;;;;;;;9.71;100.00;99811.38;5023728;28;20044;-66
2022/01/01 03:27:09;;;;;;;21.52;10.02;;;;;;;9.70;100.00;99809.59;5024161;28;20021;-66
2022/01/01 03:29:35;;;;;;;17.10;9.23;;;;;;;9.69;100.00;99807.84;5024090;28;20326;-66
2022/01/01 03:32:00;;;;;;;18.85;9.18;;;;;;;9.66;100.00;99813.09;5023670;28;20030;-65
2022/01/01 03:34:26;;;;;;;14.43;7.97;;;;;;;9.67;100.00;99814.84;5004586;28;20026;-65
2022/01/01 03:36:51;;;;;;;17.05;8.70;;;;;;;9.61;100.00;99810.44;5004313;28;20026;-65
2022/01/01 03:39:17;;;;;;;15.70;8.30;;;;;;;9.55;100.00;99809.56;5004379;28;20080;-65
2022/01/01 03:41:42;;;;;;;14.60;8.15;;;;;;;9.48;100.00;99802.50;5004594;28;20022;-65
2022/01/01 03:44:08;;;;;;;12.98;7.57;;;;;;;9.43;100.00;99799.00;5004304;28;20034;-65
2022/01/01 03:46:33;;;;;;;16.95;9.00;;;;;;;9.31;100.00;99799.84;5004363;28;20049;-65
2022/01/01 03:48:59;;;;;;;16.20;8.43;;;;;;;9.21;100.00;99792.75;5004539;28;20053;-65
2022/01/01 03:51:24;;;;;;;15.63;7.90;;;;;;;9.13;100.00;99783.09;5004306;28;20022;-65
2022/01/01 03:53:49;;;;;;;13.32;7.18;;;;;;;9.06;100.00;99786.56;5004257;28;20027;-65
2022/01/01 03:56:15;;;;;;;12.88;6.80;;;;;;;9.05;100.00;99797.97;5005430;28;20065;-65
2022/01/01 03:58:41;;;;;;;15.70;7.75;;;;;;;9.01;100.00;99798.81;5008378;28;20022;-65
2022/01/01 04:01:06;;;;;;;14.27;7.18;;;;;;;8.97;100.00;99808.41;5008188;28;20092;-65
2022/01/01 04:03:32;;;;;;;14.02;7.75;;;;;;;8.97;100.00;99807.53;5020530;28;20021;-65
2022/01/01 04:05:57;;;;;;;17.88;7.60;;;;;;;8.97;100.00;99797.91;5027628;28;20089;-65
2022/01/01 04:08:23;;;;;;;12.88;7.15;;;;;;;9.00;100.00;99802.28;5027601;28;20021;-65
2022/01/01 04:10:48;;;;;;;17.27;7.68;;;;;;;9.03;100.00;99799.69;5023710;28;20018;-65
2022/01/01 04:13:14;;;;;;;14.57;7.68;;;;;;;9.06;100.00;99866.25;5007870;28;20309;-65
2022/01/01 04:15:41;;;;;;;15.20;7.28;;;;;;;9.13;100.00;99873.28;5007767;28;20022;-65
2022/01/01 04:18:10;;;;;;;15.02;7.25;;;;;;;9.18;100.00;99849.69;5007803;28;20313;-65
2022/01/01 04:20:36;;;;;;;13.13;7.28;;;;;;;9.26;100.00;99853.19;5007982;28;20035;-65
2022/01/01 04:23:08;;;;;;;16.27;7.00;;;;;;;9.30;100.00;99849.75;5007752;28;20194;-65
2022/01/01 04:25:33;;;;;;;18.58;7.55;;;;;;;9.32;100.00;99848.00;5007436;28;20073;-65
2022/01/01 04:27:59;;;;;;;15.75;7.13;;;;;;;9.34;100.00;99859.41;5007568;28;20037;-65
2022/01/01 04:30:25;;;;;;;16.10;6.97;;;;;;;9.35;100.00;99853.25;5007545;28;20032;-65
2022/01/01 04:32:51;;;;;;;15.48;7.40;;;;;;;9.38;100.00;99850.66;5011210;28;20021;-65
2022/01/01 04:35:16;;;;;;;14.43;7.45;;;;;;;9.34;100.00;99843.63;5016866;28;20022;-65
2022/01/01 04:37:41;;;;;;;12.63;6.28;;;;;;;9.41;100.00;99837.53;5027066;28;20084;-65
2022/01/01 04:40:08;;;;;;;19.58;7.10;;;;;;;9.38;100.00;99837.50;5027012;28;20025;-65
2022/01/01 04:42:34;;;;;;;13.70;7.05;;;;;;;9.35;100.00;99837.50;5026981;28;20329;-65
2022/01/01 04:45:00;;;;;;;13.45;6.28;;;;;;;9.31;100.00;99830.47;5026994;28;20029;-65
2022/01/01 04:47:26;;;;;;;13.73;6.30;;;;;;;9.16;100.00;99825.13;5026855;28;20321;-65
2022/01/01 04:49:52;;;;;;;13.07;6.05;;;;;;;9.06;100.00;99826.84;5026823;28;20033;-65
2022/01/01 04:52:17;;;;;;;13.70;6.60;;;;;;;8.93;100.00;99818.88;5026789;28;20092;-65
2022/01/01 04:54:44;;;;;;;26.63;11.95;;;;;;;8.76;100.00;99814.41;5026720;28;20026;-65
2022/01/01 04:57:10;;;;;;;17.40;9.07;;;;;;;8.77;100.00;99821.41;5026835;28;20049;-65
2022/01/01 04:59:36;;;;;;;20.77;9.65;;;;;;;8.72;100.00;99823.16;5026681;28;20221;-65
2022/01/01 05:02:03;;;;;;;14.90;8.10;;;;;;;8.73;100.00;99824.88;5012686;28;20029;-65
2022/01/01 05:04:28;;;;;;;19.48;9.80;;;;;;;8.69;100.00;99832.72;5006934;28;20035;-65
2022/01/01 05:06:54;;;;;;;17.42;9.20;;;;;;;8.67;100.00;99824.84;5006868;28;20026;-65
2022/01/01 05:09:20;;;;;;;13.80;7.53;;;;;;;8.67;100.00;99830.09;5006052;28;20049;-65
2022/01/01 05:11:46;;;;;;;11.70;6.75;;;;;;;8.73;100.00;99834.50;5006732;28;20050;-65
2022/01/01 05:14:12;;;;;;;12.77;6.68;;;;;;;8.71;100.00;99834.47;5006776;28;20030;-65
2022/01/01 05:16:38;;;;;;;11.65;6.00;;;;;;;8.70;100.00;99835.38;5006607;28;20030;-65
2022/01/01 05:19:05;;;;;;;9.98;5.60;;;;;;;8.74;100.00;99831.88;5007757;28;20356;-65
2022/01/01 05:21:32;;;;;;;14.27;7.47;;;;;;;8.77;100.00;99834.53;5026236;28;20037;-65
2022/01/01 05:24:04;;;;;;;11.32;6.45;;;;;;;8.86;100.00;99835.47;5026190;28;20089;-65
2022/01/01 05:26:29;;;;;;;10.90;5.28;;;;;;;8.90;100.00;99845.13;5025968;28;20045;-65
2022/01/01 05:28:55;;;;;;;9.85;5.28;;;;;;;8.92;100.00;99846.03;5026060;28;20092;-65
2022/01/01 05:31:20;;;;;;;9.88;5.88;;;;;;;8.98;100.00;99841.66;5025430;28;20026;-65
2022/01/01 05:33:46;;;;;;;15.68;6.82;;;;;;;8.98;100.00;99846.06;5025739;28;20133;-65
2022/01/01 05:36:13;;;;;;;11.23;6.00;;;;;;;9.04;100.00;99846.06;5025943;28;20030;-65
2022/01/01 05:38:39;;;;;;;16.42;7.30;;;;;;;9.02;100.00;99842.59;5026146;28;20022;-65
2022/01/01 05:41:04;;;;;;;17.75;9.20;;;;;;;9.02;100.00;99837.31;5025898;28;20198;-65
2022/01/01 05:43:30;;;;;;;22.30;10.38;;;;;;;9.01;100.00;99832.97;5026107;28;20030;-65
2022/01/01 05:45:55;;;;;;;22.88;10.25;;;;;;;9.02;100.00;99839.97;5026043;28;20080;-65
2022/01/01 05:48:21;;;;;;;17.30;8.95;;;;;;;8.98;100.00;99836.41;5025747;28;20032;-65
2022/01/01 05:50:47;;;;;;;14.85;6.90;;;;;;;9.06;100.00;99844.34;5021889;28;20041;-65
2022/01/01 05:53:12;;;;;;;12.98;6.35;;;;;;;9.10;100.00;99840.84;5011679;28;20047;-65
2022/01/01 05:55:38;;;;;;;16.73;8.43;;;;;;;9.06;100.00;99829.47;5025525;28;20321;-65
2022/01/01 05:58:05;;;;;;;20.95;10.18;;;;;;;8.93;100.00;99821.50;5025547;28;20026;-65
2022/01/01 06:00:31;;;;;;;18.55;9.65;;;;;;;8.86;100.00;99819.72;5022885;28;20372;-65
2022/01/01 06:03:00;;;;;;;20.52;8.50;;;;;;;8.82;100.00;99817.97;5005839;28;20056;-65
2022/01/01 06:05:29;;;;;;;15.32;7.78;;;;;;;8.89;100.00;99830.25;5005800;28;20022;-65
2022/01/01 06:07:55;;;;;;;15.95;8.73;;;;;;;8.86;100.00;99835.47;5005730;28;20222;-65
2022/01/01 06:10:22;;;;;;;15.77;7.90;;;;;;;8.91;100.00;99839.00;5005697;28;20083;-65
2022/01/01 06:12:47;;;;;;;18.20;7.38;;;;;;;8.93;100.00;99837.28;5005649;28;20037;-65
2022/01/01 06:15:13;;;;;;;20.95;7.40;;;;;;;8.91;100.00;99836.38;5005521;28;20027;-65
2022/01/01 06:17:38;;;;;;;13.45;6.72;;;;;;;8.94;100.00;99833.75;5005767;28;20037;-65
2022/01/01 06:20:04;;;;;;;15.57;7.30;;;;;;;8.92;100.00;99825.03;5005615;28;20026;-65
2022/01/01 06:22:30;;;;;;;15.93;7.20;;;;;;;8.99;100.00;99822.44;5005543;28;20089;-65
2022/01/01 06:24:55;;;;;;;14.82;7.15;;;;;;;9.02;100.00;99821.56;5005193;28;20049;-65
2022/01/01 06:27:21;;;;;;;12.25;6.18;;;;;;;9.04;100.00;99819.81;5005421;28;20023;-65
2022/01/01 06:29:46;;;;;;;19.38;8.07;;;;;;;9.04;100.00;99809.31;5005314;28;20036;-65
2022/01/01 06:32:12;;;;;;;13.40;6.57;;;;;;;8.98;100.00;99809.31;5021229;28;20025;-65
2022/01/01 06:34:38;;;;;;;19.40;7.60;;;;;;;8.95;100.00;99809.28;5024861;28;20117;-65
2022/01/01 06:37:03;;;;;;;10.55;5.72;;;;;;;9.02;100.00;99811.06;5024872;28;20048;-65
2022/01/01 06:39:29;;;;;;;15.88;7.15;;;;;;;9.05;100.00;99805.84;5017186;28;20078;-65
2022/01/01 06:41:54;;;;;;;11.45;5.70;;;;;;;9.04;100.00;99793.56;5005150;28;20088;-65
2022/01/01 06:44:19;;;;;;;15.45;7.43;;;;;;;9.00;100.00;99792.69;5005055;28;20026;-65
2022/01/01 06:46:45;;;;;;;13.48;7.05;;;;;;;9.02;100.00;99800.56;5005054;28;20265;-65
2022/01/01 06:49:10;;;;;;;9.57;5.65;;;;;;;9.06;100.00;99800.59;5005021;28;20041;-65
2022/01/01 06:51:36;;;;;;;12.18;6.82;;;;;;;9.10;100.00;99806.72;5005007;28;20037;-65
2022/01/01 06:54:03;;;;;;;14.60;6.90;;;;;;;9.08;100.00;99819.84;5005153;28;20022;-65
2022/01/01 06:56:28;;;;;;;16.42;7.03;;;;;;;9.07;100.00;99810.22;5004741;28;20065;-65
2022/01/01 06:58:53;;;;;;;16.23;6.15;;;;;;;9.07;100.00;99825.09;5004837;28;20026;-65
2022/01/01 07:01:19;;;;;;;12.30;5.70;;;;;;;9.09;100.00;99812.84;5007347;28;20310;-65
2022/01/01 07:03:44;;;;;;;12.43;6.68;;;;;;;9.13;100.00;99825.13;5005032;28;20026;-65
2022/01/01 07:06:10;;;;;;;11.27;6.20;;;;;;;9.13;100.00;99836.53;5004726;28;20306;-65
2022/01/01 07:08:35;;;;;;;12.52;6.55;;;;;;;9.16;100.00;99841.78;5004719;28;20030;-65
2022/01/01 07:11:01;;;;;;;15.88;6.68;;;;;;;9.18;100.00;99833.91;5004714;28;20025;-65
2022/01/01 07:13:26;;;;;;;12.10;6.72;;;;;;;9.18;100.00;99839.16;5004616;28;20321;-65
2022/01/01 07:15:52;;;;;;;11.13;6.13;;;;;;;9.20;100.00;99845.31;5004547;28;20081;-65
2022/01/01 07:18:17;;;;;;;13.18;6.82;;;;;;;9.23;100.00;99853.19;5004607;28;20030;-65
2022/01/01 07:20:45;;;;;;;14.10;6.82;;;;;;;9.24;100.00;99857.59;5004634;28;20381;-65
2022/01/01 07:23:10;;;;;;;14.50;6.80;;;;;;;9.15;100.00;99854.91;5004504;28;20352;-65
2022/01/01 07:25:36;;;;;;;11.52;6.13;;;;;;;9.09;100.00;99878.50;5004307;28;20070;-65
2022/01/01 07:28:02;;;;;;;19.13;8.95;;;;;;;8.96;100.00;99863.56;5004477;28;20037;-65
2022/01/01 07:30:27;;;;;;;15.52;7.25;;;;;;;8.95;100.00;99867.06;5019894;28;20096;-65
2022/01/01 07:32:53;;;;;;;16.80;8.43;;;;;;;8.95;100.00;99882.81;5024012;28;20022;-65
2022/01/01 07:35:20;;;;;;;18.27;9.45;;;;;;;8.96;100.00;99881.94;5024021;28;20026;-65
2022/01/01 07:37:45;;;;;;;17.52;8.40;;;;;;;8.99;100.00;99900.34;5023775;28;20049;-65
2022/01/01 07:40:13;;;;;;;11.82;7.15;;;;;;;9.06;100.00;99896.88;5011263;28;20150;-65
2022/01/01 07:42:39;;;;;;;14.75;6.95;;;;;;;9.12;100.00;99902.16;5004472;28;20022;-65
2022/01/01 07:45:06;;;;;;;17.45;7.90;;;;;;;9.20;100.00;99911.00;5023348;28;20018;-65
2022/01/01 07:47:31;;;;;;;18.77;9.23;;;;;;;9.08;100.00;99924.03;5023002;28;20041;-65
2022/01/01 07:49:57;;;;;;;21.48;10.30;;;;;;;9.07;100.00;99909.13;5023050;28;20021;-65
2022/01/01 07:52:22;;;;;;;23.83;10.65;;;;;;;9.14;100.00;99913.56;5023014;28;20029;-65
2022/01/01 07:54:48;;;;;;;20.15;8.57;;;;;;;9.20;100.00;99937.25;5016356;28;20056;-65
2022/01/01 07:57:14;;;;;;;23.30;9.98;;;;;;;9.19;100.00;99914.47;5022876;28;20286;-65
2022/01/01 07:59:39;;;;;;;17.60;8.82;;;;;;;9.25;100.00;99925.03;5021780;28;20029;-65
2022/01/01 08:02:05;;;;;;;14.30;7.70;;;;;;;9.28;100.00;99935.56;5022676;28;20026;-65
2022/01/01 08:04:30;;;;;;;17.85;9.00;;;;;;;9.27;100.00;99902.28;5022831;28;20033;-65
2022/01/01 08:06:56;;;;;;;17.30;9.15;;;;;;;9.31;100.00;99919.81;5022637;28;20029;-65
2022/01/01 08:09:21;;;;;;;21.20;11.80;;;;;;;9.29;100.00;99916.28;5015286;28;20302;-65
2022/01/01 08:11:47;;;;;;;26.75;11.80;;;;;;;9.23;100.00;99921.50;5003194;28;20026;-65
2022/01/01 08:14:12;;;;;;;29.05;12.98;;;;;;;9.18;100.00;99926.75;5014785;28;20041;-65
2022/01/01 08:17:00;;;;;;;20.83;11.20;;;;;;;9.27;100.00;99923.28;5022704;28;20085;-65
2022/01/01 08:19:27;;;;;;;21.92;10.80;;;;;;;9.26;100.00;99929.41;5018499;28;20217;-65
2022/01/01 08:21:53;;;;;;;18.05;10.15;;;;;;;9.27;100.00;99939.06;5022333;28;20217;-66
2022/01/01 08:24:19;;;;;;;17.75;9.23;;;;;;;9.41;100.00;99943.53;5022500;28;20311;-66
2022/01/01 08:26:44;;;;;;;17.60;8.55;;;;;;;9.47;100.00;99942.69;5022584;28;20333;-66
2022/01/01 08:29:10;;;;;;;24.35;10.70;;;;;;;9.45;100.00;99942.66;5022635;28;20026;-65
2022/01/01 08:31:35;;;;;;;24.25;11.25;;;;;;;9.54;100.00;99931.31;5022661;28;20037;-65
2022/01/01 08:34:01;;;;;;;33.13;15.30;;;;;;;9.67;100.00;99936.66;5022217;28;20025;-65
2022/01/01 08:36:26;;;;;;;42.70;16.98;;;;;;;9.69;100.00;99941.91;5022532;28;20025;-65
2022/01/01 08:38:51;;;;;;;30.90;15.13;;;;;;;9.82;100.00;99946.38;5022574;28;20293;-65
2022/01/01 08:41:17;;;;;;;22.38;13.15;;;;;;;9.93;100.00;99939.38;5022574;28;20100;-65
2022/01/01 08:43:42;;;;;;;21.17;11.02;;;;;;;10.01;100.00;99950.81;5024114;28;20313;-65
2022/01/01 08:46:08;;;;;;;21.00;10.55;;;;;;;10.09;100.00;99951.75;5025817;28;20026;-65
2022/01/01 08:48:34;;;;;;;14.02;7.63;;;;;;;10.18;100.00;99962.31;5025763;28;20057;-65
2022/01/01 08:51:10;;;;;;;14.13;7.70;;;;;;;10.21;100.00;99946.53;5025788;28;20030;-65
2022/01/01 08:53:35;;;;;;;18.58;8.55;;;;;;;10.24;100.00;99967.59;5024603;28;20044;-65
2022/01/01 08:56:02;;;;;;;23.02;12.38;;;;;;;10.24;100.00;99957.06;5014536;28;20322;-65
2022/01/01 08:58:27;;;;;;;21.13;11.80;;;;;;;10.24;100.00;99942.16;5014287;28;20021;-65
2022/01/01 09:00:53;;;;;;;16.42;9.13;;;;;;;10.17;100.00;99936.88;5013724;28;20340;-65
2022/01/01 09:03:19;;;;;;;34.45;16.83;;;;;;;10.25;100.00;99958.84;5015344;28;20321;-65
2022/01/01 09:05:44;;;;;;;34.13;14.75;;;;;;;10.32;100.00;99972.00;5014440;28;20947;-65
2022/01/01 09:08:10;;;;;;;19.65;11.00;;;;;;;10.27;100.00;99975.50;5019925;28;20018;-65
2022/01/01 09:10:35;;;;;;;31.08;12.35;;;;;;;10.30;100.00;99970.25;5018790;28;20093;-65
2022/01/01 09:13:00;;;;;;;20.48;10.32;;;;;;;10.33;100.00;99962.38;5024186;28;20032;-65
2022/01/01 09:15:26;;;;;;;17.52;9.80;;;;;;;10.40;100.00;99954.50;5017150;28;20108;-66
2022/01/01 09:17:51;;;;;;;19.83;9.75;;;;;;;10.52;100.00;99954.53;5030242;28;20022;-66
2022/01/01 09:20:17;;;;;;;15.77;7.85;;;;;;;10.61;100.00;99953.66;5026035;28;20025;-66
2022/01/01 09:22:42;;;;;;;11.18;5.82;;;;;;;10.75;100.00;99959.81;5025689;28;20018;-65
2022/01/01 09:25:08;;;;;;;9.63;5.07;;;;;;;10.95;100.00;99961.56;5025488;28;20044;-65
2022/01/01 09:27:33;;;;;;;10.27;5.53;;;;;;;11.05;100.00;99953.66;5025448;28;20145;-65
2022/01/01 09:29:58;;;;;;;12.73;5.35;;;;;;;11.11;100.00;99957.19;5025618;28;20025;-65
2022/01/01 09:32:24;;;;;;;13.65;6.28;;;;;;;11.31;100.00;99955.41;5025525;28;20068;-65
2022/01/01 09:34:49;;;;;;;10.65;6.28;;;;;;;11.40;100.00;99963.31;5007673;28;20018;-66
2022/01/01 09:37:15;;;;;;;11.32;5.55;;;;;;;11.44;100.00;99967.69;5006374;28;20014;-66
2022/01/01 09:39:40;;;;;;;9.75;5.32;;;;;;;11.51;100.00;99969.44;5011461;28;20022;-65
2022/01/01 09:42:09;;;;;;;9.10;5.32;;;;;;;11.60;100.00;99968.53;5011496;28;20101;-66
2022/01/01 09:44:36;;;;;;;9.98;5.03;;;;;;;11.73;100.00;99968.53;5007414;28;20026;-66
2022/01/01 09:47:01;;;;;;;10.70;5.40;;;;;;;11.77;100.00;99967.63;5025139;28;20013;-66
2022/01/01 09:49:27;;;;;;;12.02;5.13;;;;;;;11.87;100.00;99958.81;5025252;28;20021;-66
2022/01/01 09:51:52;;;;;;;9.38;5.07;;;;;;;11.82;100.00;99963.22;5008615;28;20101;-66
2022/01/01 09:54:18;;;;;;;10.45;4.75;;;;;;;11.96;100.00;99964.06;5021518;28;20219;-66
2022/01/01 09:56:43;;;;;;;8.02;4.78;;;;;;;11.99;100.00;99958.75;5023136;28;20083;-66
2022/01/01 09:59:11;;;;;;;11.73;5.25;;;;;;;12.11;100.00;99966.63;5024063;28;20022;-66
2022/01/01 10:01:37;;;;;;;9.50;5.03;;;;;;;12.12;100.00;99960.47;5025036;28;20321;-66
2022/01/01 10:04:12;;;;;;;9.48;4.95;;;;;;;12.12;100.00;99955.19;5025487;28;20064;-66
2022/01/01 10:06:38;;;;;;;9.20;4.15;;;;;;;12.16;100.00;99962.22;5025677;28;20033;-66
2022/01/01 10:09:03;;;;;;;6.25;3.85;;;;;;;12.07;99.75;99956.97;5025408;28;20029;-66
2022/01/01 10:11:30;;;;;;;10.00;4.32;;;;;;;12.17;99.18;99961.34;5025324;28;20029;-66
2022/01/01 10:13:56;;;;;;;8.40;3.60;;;;;;;12.13;98.79;99946.41;5025239;28;20032;-66
2022/01/01 10:16:22;;;;;;;6.18;3.17;;;;;;;12.09;98.37;99941.16;5025211;28;20033;-66
2022/01/01 10:18:50;;;;;;;6.95;3.45;;;;;;;12.06;99.03;99944.66;5025217;28;20029;-66
2022/01/01 10:21:18;;;;;;;5.82;3.28;;;;;;;12.12;99.27;99936.72;5025385;28;20033;-66
2022/01/01 10:23:46;;;;;;;8.27;3.33;;;;;;;12.17;99.00;99932.28;5025133;28;20028;-66
2022/01/01 10:29:31;;;;;;;7.43;3.20;;;;;;;12.29;99.64;99936.63;5025144;28;20387;-66
2022/01/01 10:32:00;;;;;;;7.00;3.40;;;;;;;12.36;100.00;99925.13;5022551;28;20289;-66
2022/01/01 10:34:44;;;;;;;7.05;3.47;;;;;;;12.42;100.00;99927.75;5024934;28;20033;-66
2022/01/01 10:37:11;;;;;;;4.95;2.80;;;;;;;12.46;99.35;99925.09;5024870;28;20075;-66
2022/01/01 10:39:49;;;;;;;7.15;3.38;;;;;;;12.53;98.52;99923.28;5024801;28;20094;-66
2022/01/01 10:42:14;;;;;;;5.85;3.08;;;;;;;12.55;99.38;99914.47;5024805;28;20036;-66
2022/01/01 10:44:41;;;;;;;7.43;3.28;;;;;;;12.62;98.65;99910.88;5024792;28;20025;-66
2022/01/01 10:47:19;;;;;;;9.35;3.22;;;;;;;12.68;98.60;99913.47;5024678;28;20022;-66
2022/01/01 10:52:23;;;;;;;6.65;4.18;;;;;;;12.85;97.57;99905.44;5024627;28;20287;-66
2022/01/01 10:54:50;;;;;;;4.72;2.85;;;;;;;12.93;96.88;99908.88;5024536;28;20025;-66
2022/01/01 10:57:33;;;;;;;9.02;3.63;;;;;;;12.99;96.94;99911.50;5024471;28;20021;-66
2022/01/01 11:00:14;;;;;;;8.20;3.80;;;;;;;13.07;96.61;99909.69;5024812;28;20336;-66
2022/01/01 11:02:52;;;;;;;7.97;4.25;;;;;;;13.16;95.79;99908.72;5024525;28;20080;-66
2022/01/01 11:05:38;;;;;;;7.43;2.70;;;;;;;13.29;94.76;99905.06;5024280;28;20025;-66
2022/01/01 11:08:07;;;;;;;7.10;2.67;;;;;;;13.37;96.01;99903.19;5024433;28;20072;-66
2022/01/01 11:10:33;;;;;;;5.93;2.92;;;;;;;13.43;96.22;99904.03;5024611;28;20186;-66
2022/01/01 11:13:00;;;;;;;6.97;2.38;;;;;;;13.50;96.14;99895.13;5024281;28;20093;-66
2022/01/01 11:15:26;;;;;;;5.20;2.42;;;;;;;13.58;94.84;99900.31;5024245;28;20021;-66
2022/01/01 11:17:52;;;;;;;4.88;2.75;;;;;;;13.69;94.92;99901.94;5024279;28;20026;-66
2022/01/01 11:20:19;;;;;;;5.32;2.35;;;;;;;13.72;95.33;99893.97;5024282;28;20025;-66
2022/01/01 11:22:44;;;;;;;4.25;2.17;;;;;;;13.74;94.85;99900.16;5024177;28;20021;-66
2022/01/01 11:25:10;;;;;;;8.80;3.78;;;;;;;13.70;96.43;99889.63;5024019;28;20056;-66
2022/01/01 11:27:36;;;;;;;6.35;3.97;;;;;;;13.65;96.24;99886.13;5024193;28;20030;-66
2022/01/01 11:30:08;;;;;;;8.32;3.97;;;;;;;13.57;97.06;99885.34;5024422;28;20340;-66